createdAt,value
2019-05-03T00:00:15.702Z,2.913
2019-05-03T00:03:15.173Z,3.250
2019-05-03T00:06:15.131Z,3.913
2019-05-03T00:09:15.147Z,3.225
2019-05-03T00:12:15.197Z,1.362
2019-05-03T00:15:15.464Z,3.025
2019-05-03T00:18:14.881Z,1.087
2019-05-03T00:21:15.288Z,2.775
2019-05-03T00:24:15.887Z,3.138
2019-05-03T00:27:15.347Z,4.275
2019-05-03T00:30:15.502Z,3.200
2019-05-03T00:33:15.279Z,2.875
2019-05-03T00:36:15.059Z,2.787
2019-05-03T00:39:15.300Z,3.925
2019-05-03T00:42:15.139Z,4.050
2019-05-03T00:45:15.162Z,4.188
2019-05-03T00:48:15.903Z,2.562
2019-05-03T00:51:14.855Z,3.175
2019-05-03T00:54:15.023Z,3.025
2019-05-03T00:57:14.822Z,5.250
2019-05-03T01:00:15.607Z,3.587
2019-05-03T01:03:15.564Z,2.162
2019-05-03T01:06:15.851Z,3.375
2019-05-03T01:09:15.391Z,4.200
2019-05-03T01:24:47.307Z,4.588
2019-05-03T01:30:15.246Z,2.525
2019-05-03T01:36:15.350Z,6.425
2019-05-03T01:39:15.372Z,5.675
2019-05-03T01:45:15.491Z,6.588
2019-05-03T01:48:15.112Z,3.350
2019-05-03T01:51:23.139Z,3.575
2019-05-03T01:54:14.892Z,4.850
2019-05-03T01:57:15.219Z,2.125
2019-05-03T02:00:35.793Z,5.000
2019-05-03T02:09:15.304Z,4.188
2019-05-03T02:12:15.454Z,2.087
2019-05-03T02:15:15.355Z,2.612
2019-05-03T02:33:15.114Z,2.450
2019-05-03T02:36:15.075Z,2.700
2019-05-03T02:39:14.917Z,1.550
2019-05-03T02:42:16.255Z,1.475
2019-05-03T02:45:15.742Z,2.500
2019-05-03T02:57:15.192Z,1.475
2019-05-03T03:06:15.673Z,1.587
2019-05-03T03:12:15.597Z,1.925
2019-05-03T03:18:15.754Z,1.625
2019-05-03T03:21:16.105Z,1.988
2019-05-03T03:24:16.890Z,2.737
2019-05-03T03:27:16.373Z,2.712
2019-05-03T03:30:17.327Z,2.300
2019-05-03T03:36:42.194Z,3.225
2019-05-03T03:45:16.522Z,3.188
2019-05-03T03:48:15.895Z,2.513
2019-05-03T03:51:15.636Z,4.900
2019-05-03T03:54:15.579Z,2.500
2019-05-03T03:57:15.909Z,3.312
2019-05-03T04:00:16.310Z,4.037
2019-05-03T04:03:15.755Z,5.188
2019-05-03T04:06:15.594Z,5.012
2019-05-03T04:09:16.087Z,3.875
2019-05-03T04:12:16.499Z,2.025
2019-05-03T04:15:15.978Z,4.987
2019-05-03T04:18:16.316Z,3.613
2019-05-03T04:21:16.249Z,3.025
2019-05-03T04:24:16.428Z,2.337
2019-05-03T04:27:22.932Z,4.075
2019-05-03T04:30:16.443Z,3.963
2019-05-03T04:33:16.134Z,5.962
2019-05-03T04:36:16.085Z,4.113
2019-05-03T04:39:19.197Z,3.387
2019-05-03T04:42:16.455Z,4.537
2019-05-03T04:45:16.517Z,6.838
2019-05-03T04:48:16.053Z,5.787
2019-05-03T04:51:16.684Z,3.300
2019-05-03T04:54:16.459Z,3.650
2019-05-03T04:57:15.995Z,5.062
2019-05-03T05:03:15.287Z,5.100
2019-05-03T05:06:15.812Z,3.963
2019-05-03T05:09:15.817Z,2.875
2019-05-03T05:12:16.201Z,5.713
2019-05-03T05:15:15.988Z,2.888
2019-05-03T05:18:16.167Z,1.938
2019-05-03T05:21:15.829Z,3.625
2019-05-03T05:24:15.799Z,4.450
2019-05-03T05:27:15.348Z,5.513
2019-05-03T05:30:15.372Z,4.788
2019-05-03T05:33:15.827Z,3.812
2019-05-03T05:36:15.478Z,5.350
2019-05-03T05:39:15.595Z,3.225
2019-05-03T05:42:15.447Z,7.188
2019-05-03T05:45:15.867Z,4.588
2019-05-03T05:48:15.680Z,5.075
2019-05-03T05:51:16.150Z,2.263
2019-05-03T05:54:15.609Z,3.600
2019-05-03T06:00:15.358Z,6.438
2019-05-03T06:03:15.453Z,4.125
2019-05-03T06:06:15.337Z,2.825
2019-05-03T06:12:15.213Z,2.725
2019-05-03T06:15:15.626Z,5.362
2019-05-03T06:18:15.913Z,2.587
2019-05-03T06:24:20.240Z,4.025
2019-05-03T06:27:15.342Z,4.637
2019-05-03T06:33:15.423Z,5.812
2019-05-03T06:36:15.324Z,3.300
2019-05-03T06:39:15.581Z,2.525
2019-05-03T06:48:17.275Z,2.412
2019-05-03T06:54:15.948Z,3.325
2019-05-03T06:57:15.834Z,5.800
2019-05-03T07:03:15.593Z,7.963
2019-05-03T07:09:15.605Z,2.600
2019-05-03T07:12:47.288Z,3.350
2019-05-03T07:15:15.428Z,1.488
2019-05-03T07:21:15.626Z,4.650
2019-05-03T07:24:15.104Z,3.412
2019-05-03T07:30:15.649Z,3.425
2019-05-03T07:36:44.665Z,3.075
2019-05-03T07:39:15.380Z,2.475
2019-05-03T07:42:44.897Z,0.725
2019-05-03T07:48:15.804Z,2.362
2019-05-03T07:51:15.382Z,1.038
2019-05-03T07:54:15.914Z,1.875
2019-05-03T07:57:18.097Z,1.887
2019-05-03T08:00:15.209Z,1.212
2019-05-03T08:09:15.418Z,1.675
2019-05-03T08:12:15.801Z,1.163
2019-05-03T08:15:15.708Z,1.488
2019-05-03T08:18:15.545Z,1.050
2019-05-03T08:21:15.496Z,0.713
2019-05-03T08:24:15.888Z,1.525
2019-05-03T08:27:15.587Z,1.800
2019-05-03T08:30:15.414Z,2.712
2019-05-03T08:33:15.277Z,2.300
2019-05-03T08:36:15.759Z,3.638
2019-05-03T08:39:15.868Z,1.525
2019-05-03T08:42:15.211Z,1.863
2019-05-03T08:45:15.625Z,2.513
2019-05-03T08:51:15.670Z,1.887
2019-05-03T08:54:15.502Z,0.888
2019-05-03T08:57:15.425Z,2.013
2019-05-03T09:00:15.035Z,1.525
2019-05-03T09:03:15.670Z,1.500
2019-05-03T09:06:15.675Z,1.238
2019-05-03T09:09:15.572Z,2.150
2019-05-03T09:12:44.906Z,2.537
2019-05-03T09:15:15.388Z,1.100
2019-05-03T09:18:17.513Z,2.387
2019-05-03T09:21:15.384Z,1.600
2019-05-03T09:24:15.384Z,0.463
2019-05-03T09:27:15.578Z,0.963
2019-05-03T09:30:15.449Z,0.487
2019-05-03T09:33:15.526Z,0.912
2019-05-03T09:36:15.341Z,0.588
2019-05-03T09:39:15.937Z,0.825
2019-05-03T09:42:15.648Z,0.812
2019-05-03T09:45:15.583Z,0.550
2019-05-03T09:48:15.416Z,1.038
2019-05-03T09:51:15.406Z,1.825
2019-05-03T09:54:15.355Z,1.363
2019-05-03T10:00:16.201Z,0.737
2019-05-03T10:03:22.836Z,1.087
2019-05-03T10:06:22.288Z,1.213
2019-05-03T10:09:15.631Z,1.100
2019-05-03T10:12:16.326Z,1.038
2019-05-03T10:15:15.808Z,0.625
2019-05-03T10:18:15.235Z,1.050
2019-05-03T10:21:15.730Z,0.725
2019-05-03T10:24:15.850Z,0.763
2019-05-03T10:27:15.593Z,0.637
2019-05-03T10:30:17.091Z,1.012
2019-05-03T10:36:15.553Z,1.000
2019-05-03T10:39:16.620Z,0.238
2019-05-03T10:42:19.239Z,0.325
2019-05-03T10:51:47.659Z,0.537
2019-05-03T10:54:15.424Z,0.450
2019-05-03T10:57:22.262Z,0.675
2019-05-03T11:00:41.577Z,1.025
2019-05-03T11:03:15.626Z,1.938
2019-05-03T11:06:15.324Z,0.375
2019-05-03T11:09:15.515Z,0.938
2019-05-03T11:12:15.370Z,0.725
2019-05-03T11:15:15.281Z,0.900
2019-05-03T11:18:15.541Z,0.838
2019-05-03T11:21:27.729Z,0.487
2019-05-03T11:24:15.915Z,0.950
2019-05-03T11:27:15.700Z,1.163
2019-05-03T11:30:15.865Z,0.463
2019-05-03T11:33:15.679Z,1.375
2019-05-03T11:36:15.396Z,1.275
2019-05-03T11:39:15.597Z,1.762
2019-05-03T11:42:17.192Z,1.038
2019-05-03T11:45:15.892Z,1.350
2019-05-03T11:48:15.503Z,0.488
2019-05-03T11:51:15.362Z,0.650
2019-05-03T11:54:16.564Z,0.837
2019-05-03T11:57:15.826Z,1.163
2019-05-03T12:00:15.353Z,1.625
2019-05-03T12:03:15.645Z,0.550
2019-05-03T12:06:16.921Z,1.050
2019-05-03T12:09:15.570Z,1.775
2019-05-03T12:12:15.337Z,1.062
2019-05-03T12:15:15.839Z,0.738
2019-05-03T12:18:16.629Z,1.238
2019-05-03T12:21:17.802Z,0.825
2019-05-03T12:24:16.564Z,0.675
2019-05-03T12:27:15.770Z,0.587
2019-05-03T12:30:15.588Z,1.250
2019-05-03T12:33:15.568Z,0.737
2019-05-03T12:36:15.580Z,0.625
2019-05-03T12:39:24.139Z,0.988
2019-05-03T12:42:15.353Z,0.713
2019-05-03T12:45:15.423Z,0.300
2019-05-03T12:48:15.619Z,1.050
2019-05-03T12:51:15.886Z,0.637
2019-05-03T12:54:15.702Z,1.062
2019-05-03T12:57:15.565Z,1.987
2019-05-03T13:00:15.679Z,0.875
2019-05-03T13:03:15.412Z,0.475
2019-05-03T13:06:15.477Z,0.550
2019-05-03T13:09:16.001Z,1.025
2019-05-03T13:12:15.737Z,0.738
2019-05-03T13:15:16.213Z,1.962
2019-05-03T13:18:15.802Z,0.375
2019-05-03T13:21:15.482Z,0.287
2019-05-03T13:24:22.830Z,3.562
2019-05-03T13:27:15.207Z,1.462
2019-05-03T13:30:15.976Z,1.250
2019-05-03T13:33:15.834Z,0.412
2019-05-03T13:36:15.494Z,0.288
2019-05-03T13:39:15.348Z,0.363
2019-05-03T13:42:15.189Z,1.225
2019-05-03T13:45:15.771Z,0.812
2019-05-03T13:48:20.689Z,0.775
2019-05-03T13:51:15.519Z,0.525
2019-05-03T13:54:15.423Z,0.900
2019-05-03T13:57:15.555Z,1.788
2019-05-03T14:00:15.478Z,1.262
2019-05-03T14:03:15.444Z,0.938
2019-05-03T14:06:15.421Z,0.463
2019-05-03T14:09:15.434Z,0.800
2019-05-03T14:12:15.619Z,1.188
2019-05-03T14:15:15.522Z,2.787
2019-05-03T14:18:15.629Z,1.163
2019-05-03T14:21:15.436Z,0.312
2019-05-03T14:24:15.942Z,0.425
2019-05-03T14:30:15.877Z,0.800
2019-05-03T14:33:15.489Z,1.488
2019-05-03T14:36:16.121Z,0.825
2019-05-03T14:39:15.588Z,0.338
2019-05-03T14:42:15.401Z,0.575
2019-05-03T14:45:15.772Z,0.625
2019-05-03T14:48:15.441Z,0.988
2019-05-03T14:54:15.457Z,0.475
2019-05-03T14:57:16.781Z,0.800
2019-05-03T15:00:17.250Z,2.062
2019-05-03T15:03:15.919Z,1.012
2019-05-03T15:09:18.895Z,0.300
2019-05-03T15:12:15.685Z,0.537
2019-05-03T15:15:15.468Z,0.787
2019-05-03T15:18:15.785Z,0.663
2019-05-03T15:21:15.458Z,0.588
2019-05-03T15:27:15.504Z,0.800
2019-05-03T15:30:15.655Z,0.400
2019-05-03T15:33:15.334Z,1.050
2019-05-03T15:36:15.774Z,0.487
2019-05-03T15:39:15.563Z,0.213
2019-05-03T15:42:22.119Z,1.062
2019-05-03T15:45:15.572Z,0.950
2019-05-03T15:48:15.486Z,0.762
2019-05-03T15:51:15.516Z,0.475
2019-05-03T15:54:15.383Z,1.163
2019-05-03T15:57:16.023Z,0.250
2019-05-03T16:00:15.592Z,0.338
2019-05-03T16:03:15.473Z,0.163
2019-05-03T16:06:15.679Z,0.363
2019-05-03T16:09:15.458Z,1.938
2019-05-03T16:12:15.809Z,0.412
2019-05-03T16:15:15.501Z,2.900
2019-05-03T16:18:15.446Z,2.475
2019-05-03T16:21:15.806Z,0.875
2019-05-03T16:24:15.582Z,0.850
2019-05-03T16:27:15.639Z,0.275
2019-05-03T16:30:16.036Z,1.762
2019-05-03T16:33:26.104Z,1.788
2019-05-03T16:36:15.666Z,0.425
2019-05-03T16:39:15.473Z,2.913
2019-05-03T16:42:15.531Z,1.550
2019-05-03T16:45:17.079Z,0.425
2019-05-03T16:48:18.304Z,0.450
2019-05-03T16:51:17.323Z,1.862
2019-05-03T16:54:16.505Z,1.787
2019-05-03T16:57:17.422Z,0.688
2019-05-03T17:00:17.888Z,0.462
2019-05-03T17:03:17.243Z,0.300
2019-05-03T17:06:15.400Z,0.600
2019-05-03T17:09:15.369Z,0.488
2019-05-03T17:12:15.565Z,0.662
2019-05-03T17:15:15.351Z,0.350
2019-05-03T17:18:17.231Z,0.963
2019-05-03T17:21:16.345Z,1.538
2019-05-03T17:24:15.610Z,0.662
2019-05-03T17:27:15.545Z,0.212
2019-05-03T17:30:20.301Z,1.613
2019-05-03T17:36:15.196Z,0.662
2019-05-03T17:39:15.893Z,1.075
2019-05-03T17:42:15.965Z,0.950
2019-05-03T17:45:15.654Z,0.988
2019-05-03T17:48:15.578Z,1.438
2019-05-03T17:51:25.473Z,1.400
2019-05-03T17:54:15.652Z,1.712
2019-05-03T17:57:15.613Z,0.963
2019-05-03T18:00:15.663Z,0.862
2019-05-03T18:03:15.576Z,2.513
2019-05-03T18:06:15.659Z,0.850
2019-05-03T18:09:15.233Z,1.263
2019-05-03T18:12:15.466Z,1.762
2019-05-03T18:15:15.438Z,0.875
2019-05-03T18:18:15.965Z,0.562
2019-05-03T18:21:15.732Z,2.600
2019-05-03T18:24:24.761Z,0.312
2019-05-03T18:27:15.653Z,0.962
2019-05-03T18:30:15.466Z,1.100
2019-05-03T18:33:15.735Z,0.738
2019-05-03T18:36:15.604Z,1.413
2019-05-03T18:39:15.445Z,0.725
2019-05-03T18:42:15.433Z,2.050
2019-05-03T18:45:15.165Z,0.662
2019-05-03T18:48:15.612Z,0.662
2019-05-03T18:51:15.641Z,0.613
2019-05-03T18:54:15.716Z,1.688
2019-05-03T18:57:15.701Z,1.188
2019-05-03T19:00:15.670Z,0.800
2019-05-03T19:03:15.614Z,1.763
2019-05-03T19:06:15.709Z,2.087
2019-05-03T19:09:15.675Z,1.212
2019-05-03T19:12:15.821Z,0.850
2019-05-03T19:15:15.463Z,0.700
2019-05-03T19:18:15.488Z,0.863
2019-05-03T19:21:15.685Z,0.625
2019-05-03T19:24:15.788Z,1.300
2019-05-03T19:27:20.318Z,1.225
2019-05-03T19:30:15.634Z,0.900
2019-05-03T19:33:15.619Z,0.575
2019-05-03T19:36:15.341Z,1.887
2019-05-03T19:39:15.130Z,2.075
2019-05-03T19:42:15.869Z,1.738
2019-05-03T19:45:15.754Z,3.525
2019-05-03T19:51:15.731Z,1.738
2019-05-03T19:54:15.701Z,1.400
2019-05-03T19:57:15.631Z,1.450
2019-05-03T20:00:15.643Z,1.350
2019-05-03T20:03:36.871Z,0.713
2019-05-03T20:06:22.827Z,6.863
2019-05-03T20:09:15.372Z,5.737
2019-05-03T20:12:15.821Z,1.325
2019-05-03T20:15:15.513Z,2.550
2019-05-03T20:18:17.829Z,2.075
2019-05-03T20:21:15.823Z,3.913
2019-05-03T20:24:15.879Z,0.738
2019-05-03T20:27:24.515Z,2.038
2019-05-03T20:30:15.410Z,1.300
2019-05-03T20:33:15.523Z,1.500
2019-05-03T20:36:15.365Z,2.325
2019-05-03T20:39:15.829Z,2.575
2019-05-03T20:42:15.570Z,1.475
2019-05-03T20:45:15.555Z,1.838
2019-05-03T20:48:15.884Z,1.575
2019-05-03T20:51:15.563Z,1.113
2019-05-03T20:54:15.441Z,1.913
2019-05-03T20:57:15.215Z,2.725
2019-05-03T21:00:15.776Z,0.450
2019-05-03T21:03:15.788Z,1.475
2019-05-03T21:06:15.736Z,1.675
2019-05-03T21:09:15.730Z,1.587
2019-05-03T21:12:15.391Z,1.625
2019-05-03T21:15:15.859Z,0.912
2019-05-03T21:18:15.905Z,2.700
2019-05-03T21:21:15.407Z,1.762
2019-05-03T21:24:15.879Z,2.275
2019-05-03T21:27:15.360Z,2.500
2019-05-03T21:30:15.238Z,3.050
2019-05-03T21:33:15.830Z,2.038
2019-05-03T21:36:15.598Z,2.150
2019-05-03T21:39:15.254Z,2.087
2019-05-03T21:42:15.267Z,3.200
2019-05-03T21:45:15.823Z,4.075
2019-05-03T21:48:15.586Z,1.425
2019-05-03T21:51:15.759Z,2.200
2019-05-03T21:54:15.608Z,2.238
2019-05-03T21:57:16.587Z,1.650
2019-05-03T22:00:15.448Z,1.812
2019-05-03T22:03:15.093Z,2.475
2019-05-03T22:06:17.132Z,1.850
2019-05-03T22:09:15.833Z,5.125
2019-05-03T22:12:15.441Z,3.650
2019-05-03T22:15:15.911Z,2.200
2019-05-03T22:18:15.905Z,1.887
2019-05-03T22:21:15.441Z,2.162
2019-05-03T22:24:15.924Z,0.900
2019-05-03T22:27:15.610Z,1.612
2019-05-03T22:30:15.920Z,0.812
2019-05-03T22:33:15.792Z,1.575
2019-05-03T22:36:15.624Z,2.450
2019-05-03T22:39:15.856Z,3.475
2019-05-03T22:42:15.627Z,1.238
2019-05-03T22:45:15.286Z,1.738
2019-05-03T22:48:15.808Z,1.625
2019-05-03T22:51:15.473Z,2.562
2019-05-03T22:54:15.963Z,3.012
2019-05-03T22:57:15.468Z,5.263
2019-05-03T23:00:15.318Z,3.400
2019-05-03T23:03:16.018Z,2.912
2019-05-03T23:06:22.452Z,2.513
2019-05-03T23:09:15.951Z,2.475
2019-05-03T23:12:15.893Z,2.163
2019-05-03T23:15:15.674Z,2.425
2019-05-03T23:18:20.512Z,2.875
2019-05-03T23:21:15.830Z,2.487
2019-05-03T23:24:15.659Z,2.763
2019-05-03T23:27:15.530Z,3.500
2019-05-03T23:30:15.678Z,1.625
2019-05-03T23:33:15.208Z,3.275
2019-05-03T23:36:15.983Z,3.738
2019-05-03T23:39:15.717Z,1.988
2019-05-03T23:42:15.736Z,2.700
2019-05-03T23:45:15.923Z,2.475
2019-05-03T23:48:15.933Z,2.875
2019-05-03T23:51:15.546Z,1.375
2019-05-03T23:54:15.656Z,1.337
2019-05-03T23:57:15.391Z,3.587
